Time;durP1;ratioP1;P1;durP2;ratioP2;P2;SDS_P1;SDS_P2;PMS_P1;PMS_P2;Temp;Humidity;BMP_temperature;BMP_pressure;BME280_temperature;BME280_humidity;BME280_pressure;Samples;Min_cycle;Max_cycle;Signal;HPM_P1;HPM_P2
2021/12/24 00:00:17;;;;;;;12.07;7.13;;;;;;;;;;5079355;28;20037;-67
2021/12/24 00:02:43;;;;;;;11.73;6.00;;;;;;;;;;5081080;28;20020;-68
2021/12/24 00:05:09;;;;;;;14.70;6.25;;;;;;;;;;5076472;28;20347;-66
2021/12/24 00:07:35;;;;;;;11.27;6.10;;;;;;;;;;5079469;28;20029;-67
2021/12/24 00:10:01;;;;;;;12.95;5.03;;;;;;;;;;5081522;28;20028;-67
2021/12/24 00:12:31;;;;;;;9.45;5.28;;;;;;;;;;5084654;28;20032;-66
2021/12/24 00:15:02;;;;;;;12.10;4.95;;;;;;;;;;5084735;28;20029;-66
2021/12/24 00:17:31;;;;;;;10.32;4.85;;;;;;;;;;5082892;28;20052;-66
2021/12/24 00:36:05;;;;;;;8.45;3.50;;;;;;;;;;5063728;28;20106;-66
2021/12/24 00:38:30;;;;;;;10.75;3.40;;;;;;;;;;5063753;28;20036;-66
2021/12/24 00:40:56;;;;;;;7.90;3.38;;;;;;;;;;5061511;28;20259;-66
2021/12/24 00:43:21;;;;;;;10.05;3.85;;;;;;;;;;5063323;28;20461;-67
2021/12/24 00:45:49;;;;;;;10.70;3.60;;;;;;;;;;5063126;28;20048;-68
2021/12/24 00:48:17;;;;;;;8.15;3.75;;;;;;;;;;5063327;28;20096;-67
2021/12/24 00:56:11;;;;;;;10.50;4.00;;;;;;;;;;5062796;28;20301;-66
2021/12/24 00:58:37;;;;;;;6.90;3.55;;;;;;;;;;5061448;28;20032;-66
2021/12/24 01:01:04;;;;;;;8.32;4.15;;;;;;;;;;5061789;28;20225;-67
2021/12/24 01:03:31;;;;;;;8.60;4.35;;;;;;;;;;5063668;28;20033;-67
2021/12/24 01:05:57;;;;;;;11.73;4.80;;;;;;;;;;5062792;28;20024;-66
2021/12/24 01:08:22;;;;;;;11.75;5.32;;;;;;;;;;5062630;28;20036;-66
2021/12/24 01:11:00;;;;;;;12.02;4.65;;;;;;;;;;5062343;28;20226;-69
2021/12/24 01:13:27;;;;;;;9.00;4.35;;;;;;;;;;5063113;28;20036;-66
2021/12/24 01:16:05;;;;;;;7.60;4.30;;;;;;;;;;5061198;28;20461;-66
2021/12/24 01:18:45;;;;;;;9.85;4.28;;;;;;;;;;5061606;28;20037;-66
2021/12/24 01:21:25;;;;;;;9.20;4.68;;;;;;;;;;5062726;28;20032;-66
2021/12/24 01:23:58;;;;;;;9.35;4.97;;;;;;;;;;5062346;28;20036;-66
2021/12/24 01:30:05;;;;;;;9.23;5.20;;;;;;;;;;5062879;28;20142;-67
2021/12/24 01:42:52;;;;;;;8.07;4.85;;;;;;;;;;5060605;28;20039;-66
2021/12/24 01:45:23;;;;;;;10.73;5.25;;;;;;;;;;5062588;28;20025;-65
2021/12/24 01:47:50;;;;;;;9.48;5.05;;;;;;;;;;5062022;28;20024;-67
2021/12/24 01:50:17;;;;;;;10.95;5.40;;;;;;;;;;5060352;28;20033;-66
2021/12/24 01:52:44;;;;;;;8.02;4.93;;;;;;;;;;5061699;28;20021;-66
2021/12/24 01:55:10;;;;;;;9.80;5.45;;;;;;;;;;5060674;28;20037;-66
2021/12/24 01:57:38;;;;;;;12.23;5.40;;;;;;;;;;5057357;28;20025;-66
2021/12/24 02:00:06;;;;;;;10.50;5.10;;;;;;;;;;5060075;28;20033;-66
2021/12/24 02:02:32;;;;;;;7.93;5.03;;;;;;;;;;5060076;28;20068;-66
2021/12/24 02:04:57;;;;;;;10.15;4.90;;;;;;;;;;5060119;28;20032;-67
2021/12/24 02:07:22;;;;;;;8.45;5.60;;;;;;;;;;5057036;28;20059;-69
2021/12/24 02:09:48;;;;;;;9.73;5.43;;;;;;;;;;5088912;28;20033;-67
2021/12/24 02:12:15;;;;;;;8.68;5.40;;;;;;;;;;5056625;28;20032;-66
2021/12/24 02:14:43;;;;;;;9.45;4.80;;;;;;;;;;5056172;28;20048;-67
2021/12/24 02:17:32;;;;;;;12.02;5.18;;;;;;;;;;5056550;28;20444;-69
2021/12/24 02:28:21;;;;;;;10.02;5.22;;;;;;;;;;5059769;28;20035;-70
2021/12/24 02:30:47;;;;;;;9.77;5.30;;;;;;;;;;5077579;28;20040;-66
2021/12/24 02:33:13;;;;;;;10.02;5.07;;;;;;;;;;5074869;28;20021;-66
2021/12/24 02:35:39;;;;;;;8.98;4.82;;;;;;;;;;5076090;28;20027;-67
2021/12/24 02:38:05;;;;;;;8.20;4.50;;;;;;;;;;5078648;28;20060;-67
2021/12/24 02:40:31;;;;;;;9.05;4.60;;;;;;;;;;5075239;28;20051;-67
2021/12/24 02:42:58;;;;;;;7.90;4.78;;;;;;;;;;5075003;28;20354;-67
2021/12/24 02:45:25;;;;;;;7.05;4.50;;;;;;;;;;5080096;28;20044;-67
2021/12/24 02:55:59;;;;;;;8.63;4.30;;;;;;;;;;5078023;28;20438;-67
2021/12/24 02:58:25;;;;;;;9.70;5.10;;;;;;;;;;5073465;28;20511;-65
2021/12/24 03:00:50;;;;;;;8.02;4.63;;;;;;;;;;5076738;28;20312;-67
2021/12/24 03:03:16;;;;;;;7.10;4.35;;;;;;;;;;5078446;28;20055;-67
2021/12/24 03:05:41;;;;;;;8.55;4.80;;;;;;;;;;5074200;28;20093;-67
2021/12/24 03:08:07;;;;;;;8.68;4.60;;;;;;;;;;5073438;28;20037;-67
2021/12/24 03:10:35;;;;;;;8.07;4.47;;;;;;;;;;5074959;28;20079;-67
2021/12/24 03:13:01;;;;;;;9.38;4.75;;;;;;;;;;5076908;28;20021;-67
2021/12/24 03:15:26;;;;;;;10.30;4.95;;;;;;;;;;5079914;28;20028;-66
2021/12/24 03:17:55;;;;;;;8.52;4.88;;;;;;;;;;5076501;28;20056;-67
2021/12/24 03:20:22;;;;;;;8.45;4.65;;;;;;;;;;5079498;28;20029;-66
2021/12/24 03:25:28;;;;;;;8.00;4.43;;;;;;;;;;5076510;28;20029;-66
2021/12/24 03:27:54;;;;;;;8.35;4.43;;;;;;;;;;5079633;28;20063;-67
2021/12/24 03:30:19;;;;;;;9.85;4.53;;;;;;;;;;5076173;28;20320;-67
2021/12/24 03:32:44;;;;;;;8.02;4.65;;;;;;;;;;5078401;28;20325;-68
2021/12/24 03:35:10;;;;;;;10.98;4.63;;;;;;;;;;5079051;28;20048;-67
2021/12/24 03:37:36;;;;;;;8.70;4.38;;;;;;;;;;5077962;28;20043;-67
2021/12/24 03:40:03;;;;;;;8.25;4.47;;;;;;;;;;5078306;28;20032;-67
2021/12/24 03:42:29;;;;;;;7.47;4.55;;;;;;;;;;5077765;28;20032;-67
2021/12/24 03:45:05;;;;;;;8.45;4.70;;;;;;;;;;5080438;28;20032;-66
2021/12/24 03:47:36;;;;;;;7.10;4.60;;;;;;;;;;5083273;28;20036;-67
2021/12/24 03:50:08;;;;;;;11.45;4.88;;;;;;;;;;5085058;28;20339;-67
2021/12/24 03:54:55;;;;;;;8.70;4.55;;;;;;;;;;5084938;28;20317;-66
2021/12/24 03:55:22;;;;;;;8.38;4.30;;;;;;;;;;5080770;28;20106;-67
2021/12/24 03:57:47;;;;;;;10.68;5.20;;;;;;;;;;5085009;28;20313;-66
2021/12/24 04:00:21;;;;;;;7.75;4.50;;;;;;;;;;5082383;28;20032;-68
2021/12/24 04:02:47;;;;;;;8.93;4.75;;;;;;;;;;5082856;28;20036;-67
2021/12/24 04:05:13;;;;;;;9.55;4.80;;;;;;;;;;5081909;28;20025;-67
2021/12/24 04:07:38;;;;;;;11.05;4.82;;;;;;;;;;5078595;28;20031;-67
2021/12/24 04:10:15;;;;;;;10.32;4.82;;;;;;;;;;5078200;28;20244;-66
2021/12/24 04:12:41;;;;;;;8.52;4.47;;;;;;;;;;5078246;28;20021;-67
2021/12/24 04:15:07;;;;;;;7.65;4.45;;;;;;;;;;5077159;28;20409;-66
2021/12/24 04:17:36;;;;;;;7.75;4.60;;;;;;;;;;5079386;28;20039;-66
2021/12/24 04:25:20;;;;;;;8.40;4.65;;;;;;;;;;5077267;28;20066;-66
2021/12/24 04:27:46;;;;;;;7.25;4.13;;;;;;;;;;5081623;28;20033;-66
2021/12/24 04:30:16;;;;;;;9.75;4.53;;;;;;;;;;5058735;28;20021;-66
2021/12/24 04:35:20;;;;;;;7.93;3.58;;;;;;;;;;5061137;28;20025;-67
2021/12/24 04:51:21;;;;;;;8.60;3.97;;;;;;;;;;5055167;28;20107;-67
2021/12/24 05:02:23;;;;;;;7.75;3.58;;;;;;;;;;5057247;28;20043;-66
2021/12/24 05:04:54;;;;;;;9.47;3.47;;;;;;;;;;5060867;28;20036;-67
2021/12/24 05:10:11;;;;;;;6.80;3.38;;;;;;;;;;5051412;28;20033;-67
2021/12/24 05:12:36;;;;;;;7.82;3.53;;;;;;;;;;5060552;28;20033;-66
2021/12/24 05:15:04;;;;;;;6.40;3.85;;;;;;;;;;5059200;28;20092;-66
2021/12/24 05:18:07;;;;;;;8.27;3.88;;;;;;;;;;5061853;28;20035;-66
2021/12/24 05:22:59;;;;;;;6.45;3.75;;;;;;;;;;5061022;28;20036;-66
2021/12/24 05:25:24;;;;;;;7.32;3.80;;;;;;;;;;5060987;28;20033;-66
2021/12/24 05:27:55;;;;;;;6.47;3.90;;;;;;;;;;5060211;28;20035;-66
2021/12/24 05:30:22;;;;;;;7.22;3.85;;;;;;;;;;5059790;28;20052;-66
2021/12/24 05:32:47;;;;;;;7.95;4.05;;;;;;;;;;5061296;28;20033;-66
2021/12/24 05:35:13;;;;;;;6.50;3.67;;;;;;;;;;5061559;28;20096;-66
2021/12/24 05:37:38;;;;;;;7.22;3.60;;;;;;;;;;5056541;28;20419;-66
2021/12/24 05:40:04;;;;;;;5.72;3.47;;;;;;;;;;5061190;28;20028;-67
2021/12/24 05:42:32;;;;;;;6.35;3.72;;;;;;;;;;5059463;28;20057;-66
2021/12/24 05:45:03;;;;;;;8.48;3.60;;;;;;;;;;5059433;28;20041;-66
2021/12/24 05:47:29;;;;;;;5.95;3.35;;;;;;;;;;5067106;28;20047;-66
2021/12/24 05:49:55;;;;;;;5.78;3.33;;;;;;;;;;5066353;28;20024;-66
2021/12/24 05:52:20;;;;;;;5.05;2.95;;;;;;;;;;5075830;28;20036;-67
2021/12/24 05:54:49;;;;;;;5.35;3.28;;;;;;;;;;5076079;28;20443;-69
2021/12/24 05:57:14;;;;;;;5.65;3.10;;;;;;;;;;5075347;28;20033;-66
2021/12/24 05:59:40;;;;;;;7.05;3.75;;;;;;;;;;5078849;28;20116;-66
2021/12/24 06:02:06;;;;;;;6.75;3.42;;;;;;;;;;5079110;28;20422;-66
2021/12/24 06:04:32;;;;;;;6.40;3.33;;;;;;;;;;5077553;28;20086;-66
2021/12/24 06:06:58;;;;;;;8.52;3.50;;;;;;;;;;5081185;28;20040;-66
2021/12/24 06:09:23;;;;;;;4.85;3.30;;;;;;;;;;5079671;28;20044;-67
2021/12/24 06:11:49;;;;;;;5.38;3.13;;;;;;;;;;5079430;28;20056;-66
2021/12/24 06:14:14;;;;;;;5.95;3.60;;;;;;;;;;5082318;28;20039;-66
2021/12/24 06:17:15;;;;;;;7.18;3.47;;;;;;;;;;5079728;28;20064;-67
2021/12/24 06:19:32;;;;;;;6.97;3.83;;;;;;;;;;5079226;28;20044;-66
2021/12/24 06:21:57;;;;;;;6.07;3.90;;;;;;;;;;5076034;28;20032;-66
2021/12/24 06:24:23;;;;;;;10.38;4.30;;;;;;;;;;5101122;28;20059;-66
2021/12/24 06:26:49;;;;;;;8.95;4.10;;;;;;;;;;5097837;28;20036;-66
2021/12/24 06:29:15;;;;;;;9.43;4.18;;;;;;;;;;5086422;28;20082;-67
2021/12/24 06:31:41;;;;;;;7.38;3.90;;;;;;;;;;5076126;28;20491;-66
2021/12/24 06:34:07;;;;;;;9.07;4.10;;;;;;;;;;5082749;28;20035;-67
2021/12/24 06:36:35;;;;;;;6.95;4.03;;;;;;;;;;5099416;28;20296;-68
2021/12/24 06:39:01;;;;;;;6.40;3.70;;;;;;;;;;5095847;28;20056;-68
2021/12/24 06:41:26;;;;;;;7.03;4.03;;;;;;;;;;5080683;28;20032;-67
2021/12/24 06:43:52;;;;;;;6.45;3.75;;;;;;;;;;5076928;28;20507;-69
2021/12/24 06:46:18;;;;;;;6.80;4.10;;;;;;;;;;5076152;28;20028;-67
2021/12/24 06:48:45;;;;;;;7.30;4.35;;;;;;;;;;5078008;28;20032;-67
2021/12/24 06:51:10;;;;;;;7.35;4.45;;;;;;;;;;5074531;28;20056;-67
2021/12/24 06:53:36;;;;;;;7.38;4.03;;;;;;;;;;5080210;28;20043;-67
2021/12/24 06:56:01;;;;;;;11.18;4.70;;;;;;;;;;5078403;28;20174;-67
2021/12/24 06:58:27;;;;;;;9.32;4.35;;;;;;;;;;5078588;28;20239;-67
2021/12/24 07:00:52;;;;;;;9.30;4.25;;;;;;;;;;5074533;28;20121;-67
2021/12/24 07:03:18;;;;;;;9.05;5.45;;;;;;;;;;5077037;28;20025;-69
2021/12/24 07:05:43;;;;;;;7.53;4.75;;;;;;;;;;5080113;28;20024;-67
2021/12/24 07:08:09;;;;;;;7.97;4.68;;;;;;;;;;5081602;28;20086;-66
2021/12/24 07:10:34;;;;;;;8.02;5.00;;;;;;;;;;5076038;28;20320;-67
2021/12/24 07:12:59;;;;;;;7.85;4.57;;;;;;;;;;5079288;28;20032;-66
2021/12/24 07:15:25;;;;;;;8.35;4.82;;;;;;;;;;5079760;28;20050;-66
2021/12/24 07:17:50;;;;;;;6.30;3.97;;;;;;;;;;5081516;28;20238;-66
2021/12/24 07:20:16;;;;;;;8.68;5.07;;;;;;;;;;5079025;28;20347;-67
2021/12/24 07:22:42;;;;;;;7.88;4.30;;;;;;;;;;5079744;28;20028;-67
2021/12/24 07:25:08;;;;;;;8.82;3.58;;;;;;;;;;5079534;28;20051;-67
2021/12/24 07:27:35;;;;;;;6.20;3.33;;;;;;;;;;5081371;28;20032;-66
2021/12/24 07:30:02;;;;;;;6.25;3.30;;;;;;;;;;5079673;28;20051;-66
2021/12/24 07:32:27;;;;;;;10.65;3.35;;;;;;;;;;5077236;28;20029;-67
2021/12/24 07:34:53;;;;;;;5.60;3.47;;;;;;;;;;5080260;28;20013;-67
2021/12/24 07:37:18;;;;;;;6.15;3.60;;;;;;;;;;5071581;28;20032;-67
2021/12/24 07:39:44;;;;;;;7.85;3.42;;;;;;;;;;5069733;28;20029;-67
2021/12/24 07:42:10;;;;;;;5.20;2.97;;;;;;;;;;5069714;28;20024;-66
2021/12/24 07:44:35;;;;;;;6.13;3.80;;;;;;;;;;5068024;28;20720;-67
2021/12/24 07:47:04;;;;;;;6.05;3.38;;;;;;;;;;5069573;28;20552;-68
2021/12/24 07:49:30;;;;;;;5.88;3.53;;;;;;;;;;5069421;28;20024;-70
2021/12/24 07:54:33;;;;;;;6.70;3.80;;;;;;;;;;5069134;28;20044;-68
2021/12/24 07:57:00;;;;;;;7.45;4.30;;;;;;;;;;5069621;28;20437;-67
2021/12/24 07:59:26;;;;;;;7.95;4.32;;;;;;;;;;5069626;28;20042;-68
2021/12/24 08:01:56;;;;;;;6.03;4.25;;;;;;;;;;5063405;28;20032;-69
2021/12/24 08:04:22;;;;;;;7.25;3.70;;;;;;;;;;5069338;28;20112;-67
2021/12/24 08:06:48;;;;;;;8.57;4.25;;;;;;;;;;5069368;28;20155;-67
2021/12/24 08:09:13;;;;;;;5.60;3.33;;;;;;;;;;5069519;28;20082;-67
2021/12/24 08:11:39;;;;;;;6.80;4.10;;;;;;;;;;5069289;28;20028;-68
2021/12/24 08:14:06;;;;;;;9.90;4.72;;;;;;;;;;5069203;28;20020;-68
2021/12/24 08:16:33;;;;;;;7.95;3.92;;;;;;;;;;5069391;28;20060;-67
2021/12/24 08:18:59;;;;;;;7.00;3.90;;;;;;;;;;5069462;28;20028;-68
2021/12/24 08:21:25;;;;;;;7.28;4.22;;;;;;;;;;5069308;28;20028;-68
2021/12/24 08:23:51;;;;;;;25.00;10.52;;;;;;;;;;5070600;28;20111;-68
2021/12/24 08:26:18;;;;;;;11.50;6.20;;;;;;;;;;5070568;28;20383;-67
2021/12/24 08:28:44;;;;;;;14.55;7.60;;;;;;;;;;5069538;28;20016;-68
2021/12/24 08:31:10;;;;;;;37.92;18.90;;;;;;;;;;5069312;28;20061;-67
2021/12/24 08:33:35;;;;;;;22.27;11.98;;;;;;;;;;5072193;28;20025;-67
2021/12/24 08:36:06;;;;;;;12.48;7.20;;;;;;;;;;5072636;28;20181;-67
2021/12/24 08:38:32;;;;;;;16.92;7.97;;;;;;;;;;5072501;28;20050;-66
2021/12/24 08:40:58;;;;;;;16.48;9.15;;;;;;;;;;5072555;28;20025;-68
2021/12/24 08:43:23;;;;;;;23.27;12.45;;;;;;;;;;5072527;28;20048;-68
2021/12/24 08:45:49;;;;;;;12.68;7.00;;;;;;;;;;5067389;28;20053;-65
2021/12/24 08:48:14;;;;;;;24.75;12.25;;;;;;;;;;5066764;28;20109;-64
2021/12/24 08:50:40;;;;;;;20.25;9.98;;;;;;;;;;5072407;28;20025;-64
2021/12/24 08:53:06;;;;;;;33.10;16.77;;;;;;;;;;5061308;28;20036;-65
2021/12/24 08:55:33;;;;;;;31.35;15.38;;;;;;;;;;5067961;28;20040;-66
2021/12/24 08:57:58;;;;;;;34.78;17.42;;;;;;;;;;5074350;28;20320;-65
2021/12/24 09:00:24;;;;;;;24.50;12.88;;;;;;;;;;5082108;28;20093;-66
2021/12/24 09:02:49;;;;;;;25.60;13.27;;;;;;;;;;5072155;28;20028;-67
2021/12/24 09:05:15;;;;;;;19.52;11.65;;;;;;;;;;5078264;28;20040;-67
2021/12/24 09:07:41;;;;;;;18.90;10.55;;;;;;;;;;5065471;28;20383;-68
2021/12/24 09:10:09;;;;;;;19.35;10.27;;;;;;;;;;5065366;28;20056;-69
2021/12/24 09:12:35;;;;;;;18.00;9.82;;;;;;;;;;5073819;28;20031;-67
2021/12/24 09:15:01;;;;;;;19.30;10.68;;;;;;;;;;5082894;28;20028;-69
2021/12/24 09:17:28;;;;;;;22.20;11.70;;;;;;;;;;5082366;28;20020;-69
2021/12/24 09:19:55;;;;;;;20.42;11.07;;;;;;;;;;5079217;28;20031;-68
2021/12/24 09:22:28;;;;;;;21.38;12.45;;;;;;;;;;5073222;28;20032;-67
2021/12/24 09:24:54;;;;;;;19.15;10.40;;;;;;;;;;5078576;28;20060;-73
2021/12/24 09:27:20;;;;;;;18.50;11.00;;;;;;;;;;5071601;28;20037;-67
2021/12/24 09:29:46;;;;;;;18.25;8.52;;;;;;;;;;5077174;28;20025;-66
2021/12/24 09:32:11;;;;;;;17.67;8.45;;;;;;;;;;5071801;28;20081;-68
2021/12/24 09:34:37;;;;;;;14.57;8.20;;;;;;;;;;5071527;28;20094;-67
2021/12/24 09:37:03;;;;;;;14.88;6.50;;;;;;;;;;5071816;28;20035;-67
2021/12/24 09:39:29;;;;;;;16.33;7.82;;;;;;;;;;5071593;28;20024;-69
2021/12/24 09:41:54;;;;;;;12.75;7.18;;;;;;;;;;5071359;28;20113;-65
2021/12/24 09:44:20;;;;;;;12.25;7.15;;;;;;;;;;5070829;28;20496;-67
2021/12/24 09:46:45;;;;;;;11.50;6.88;;;;;;;;;;5071334;28;20617;-67
2021/12/24 09:49:13;;;;;;;16.17;7.65;;;;;;;;;;5071238;28;20099;-68
2021/12/24 09:51:41;;;;;;;25.02;11.13;;;;;;;;;;5071304;28;20027;-67
2021/12/24 09:54:13;;;;;;;23.48;9.80;;;;;;;;;;5074306;28;20028;-67
2021/12/24 09:56:39;;;;;;;14.25;7.53;;;;;;;;;;5071006;28;20028;-69
2021/12/24 09:59:05;;;;;;;15.27;7.25;;;;;;;;;;5070940;28;20488;-66
2021/12/24 10:01:38;;;;;;;20.88;11.32;;;;;;;;;;5072606;28;20047;-69
2021/12/24 10:04:16;;;;;;;20.73;9.75;;;;;;;;;;5070433;28;20059;-68
2021/12/24 10:07:16;;;;;;;16.67;9.23;;;;;;;;;;5069637;28;20051;-72
2021/12/24 10:09:44;;;;;;;22.40;10.68;;;;;;;;;;5075584;28;20024;-70
2021/12/24 10:12:17;;;;;;;22.27;9.73;;;;;;;;;;5074574;28;20038;-71
2021/12/24 10:14:57;;;;;;;19.60;10.05;;;;;;;;;;5075611;28;20268;-68
2021/12/24 10:17:25;;;;;;;18.70;8.88;;;;;;;;;;5082173;28;20095;-69
2021/12/24 10:19:56;;;;;;;20.02;7.82;;;;;;;;;;5073370;28;20072;-69
2021/12/24 10:22:22;;;;;;;15.18;7.88;;;;;;;;;;5069546;28;20040;-68
2021/12/24 10:25:05;;;;;;;17.08;7.95;;;;;;;;;;5069353;28;20032;-68
2021/12/24 10:27:34;;;;;;;16.75;6.85;;;;;;;;;;5068251;28;20067;-68
2021/12/24 10:30:13;;;;;;;21.50;10.15;;;;;;;;;;5071925;28;20040;-68
2021/12/24 10:32:39;;;;;;;12.32;6.85;;;;;;;;;;5070876;28;20028;-69
2021/12/24 10:35:27;;;;;;;15.10;7.80;;;;;;;;;;5079188;28;20236;-70
2021/12/24 10:38:16;;;;;;;22.33;10.18;;;;;;;;;;5068843;28;20129;-69
2021/12/24 10:40:48;;;;;;;30.90;11.30;;;;;;;;;;5070983;28;20027;-70
2021/12/24 10:43:24;;;;;;;30.00;10.20;;;;;;;;;;5076134;28;20024;-68
2021/12/24 10:46:14;;;;;;;13.30;7.03;;;;;;;;;;5073037;28;20042;-69
2021/12/24 10:48:57;;;;;;;13.60;6.50;;;;;;;;;;5084043;28;20056;-69
2021/12/24 10:51:52;;;;;;;12.30;6.22;;;;;;;;;;5075012;28;20240;-69
2021/12/24 10:54:08;;;;;;;12.43;6.22;;;;;;;;;;5075778;28;20032;-70
2021/12/24 10:56:34;;;;;;;13.05;6.85;;;;;;;;;;5078809;28;20024;-69
2021/12/24 10:58:59;;;;;;;16.45;7.18;;;;;;;;;;5063841;28;20031;-69
2021/12/24 11:01:25;;;;;;;14.98;7.43;;;;;;;;;;5064028;28;20022;-68
2021/12/24 11:03:51;;;;;;;17.02;7.70;;;;;;;;;;5071789;28;20020;-70
2021/12/24 11:06:16;;;;;;;15.27;8.15;;;;;;;;;;5076497;28;20029;-69
2021/12/24 11:08:43;;;;;;;18.85;8.90;;;;;;;;;;5080703;28;20051;-71
2021/12/24 11:11:18;;;;;;;19.83;10.90;;;;;;;;;;5058312;28;20450;-70
2021/12/24 11:13:45;;;;;;;19.85;11.18;;;;;;;;;;5067566;28;20044;-70
2021/12/24 11:16:15;;;;;;;23.88;11.73;;;;;;;;;;5050282;28;20040;-69
2021/12/24 11:18:46;;;;;;;24.07;10.40;;;;;;;;;;5057186;28;20416;-70
2021/12/24 11:21:17;;;;;;;18.08;10.15;;;;;;;;;;5070113;28;20263;-70
2021/12/24 11:23:43;;;;;;;21.88;10.10;;;;;;;;;;5069756;28;20028;-69
2021/12/24 11:26:11;;;;;;;19.88;10.75;;;;;;;;;;5069227;28;20060;-70
2021/12/24 11:28:39;;;;;;;19.25;9.88;;;;;;;;;;5051053;28;20029;-68
2021/12/24 11:31:14;;;;;;;20.00;9.40;;;;;;;;;;5049507;28;20024;-68
2021/12/24 11:33:45;;;;;;;18.75;9.57;;;;;;;;;;5064770;28;20033;-72
2021/12/24 11:36:14;;;;;;;15.77;8.15;;;;;;;;;;5069524;28;20048;-70
2021/12/24 11:38:44;;;;;;;16.65;8.80;;;;;;;;;;5070265;28;20373;-70
2021/12/24 11:41:14;;;;;;;16.13;7.40;;;;;;;;;;5070903;28;20029;-70
2021/12/24 11:43:43;;;;;;;20.58;8.98;;;;;;;;;;5069504;28;20206;-75
2021/12/24 11:46:10;;;;;;;14.55;7.88;;;;;;;;;;5070297;28;20033;-75
2021/12/24 11:48:36;;;;;;;14.75;6.88;;;;;;;;;;5067919;28;20044;-73
2021/12/24 11:51:07;;;;;;;13.32;6.28;;;;;;;;;;5068609;28;20063;-72
2021/12/24 11:53:33;;;;;;;10.05;6.70;;;;;;;;;;5068025;28;20021;-68
2021/12/24 11:56:04;;;;;;;13.18;6.43;;;;;;;;;;5065967;28;20484;-71
2021/12/24 11:58:32;;;;;;;9.52;5.70;;;;;;;;;;5070566;28;20055;-73
2021/12/24 12:01:02;;;;;;;13.32;5.90;;;;;;;;;;5069877;28;20490;-71
2021/12/24 12:03:38;;;;;;;;;;;;;;;;;;5069180;28;20090;-76
2021/12/24 12:06:09;;;;;;;11.15;5.90;;;;;;;;;;5067966;28;19954;-75
2021/12/24 12:08:37;;;;;;;8.52;5.47;;;;;;;;;;5071444;28;20163;-76
2021/12/24 12:11:04;;;;;;;12.20;5.65;;;;;;;;;;5064669;28;20490;-68
2021/12/24 12:13:51;;;;;;;9.10;5.78;;;;;;;;;;5060548;28;20376;-75
2021/12/24 12:16:24;;;;;;;8.77;5.38;;;;;;;;;;5071290;28;20023;-76
2021/12/24 12:19:08;;;;;;;11.52;6.45;;;;;;;;;;5060571;28;20036;-69
2021/12/24 12:21:38;;;;;;;11.10;6.10;;;;;;;;;;5069668;28;20466;-76
2021/12/24 12:26:43;;;;;;;11.02;6.10;;;;;;;;;;5059762;28;20025;-74
2021/12/24 12:29:32;;;;;;;13.68;7.03;;;;;;;;;;5071941;28;20175;-72
2021/12/24 12:32:21;;;;;;;15.52;7.78;;;;;;;;;;5070753;28;20107;-72
2021/12/24 12:34:48;;;;;;;16.67;9.13;;;;;;;;;;5057756;28;20032;-76
2021/12/24 12:37:20;;;;;;;20.73;10.70;;;;;;;;;;5072558;28;20361;-70
2021/12/24 12:39:50;;;;;;;14.27;7.50;;;;;;;;;;5072207;28;20032;-70
2021/12/24 12:42:17;;;;;;;11.63;7.65;;;;;;;;;;5070464;28;20492;-74
2021/12/24 12:44:54;;;;;;;15.18;8.20;;;;;;;;;;5071482;28;20395;-69
2021/12/24 12:47:27;;;;;;;12.43;7.53;;;;;;;;;;5071410;28;20388;-70
2021/12/24 12:50:15;;;;;;;12.35;6.75;;;;;;;;;;5072182;28;20029;-70
2021/12/24 12:52:41;;;;;;;13.02;6.60;;;;;;;;;;5072403;28;20487;-68
2021/12/24 12:55:28;;;;;;;11.95;7.28;;;;;;;;;;5072128;28;20056;-71
2021/12/24 12:58:24;;;;;;;11.52;7.47;;;;;;;;;;5071158;28;20032;-69
2021/12/24 13:01:10;;;;;;;11.57;6.80;;;;;;;;;;5072115;28;20025;-70
2021/12/24 13:03:57;;;;;;;13.15;7.15;;;;;;;;;;5072386;28;20154;-71
2021/12/24 13:06:25;;;;;;;14.40;7.97;;;;;;;;;;5072221;28;20099;-73
2021/12/24 13:08:51;;;;;;;14.52;7.55;;;;;;;;;;5072252;28;20054;-69
2021/12/24 13:11:20;;;;;;;13.15;7.15;;;;;;;;;;5071703;28;20025;-70
2021/12/24 13:14:05;;;;;;;13.82;8.27;;;;;;;;;;5071974;28;20031;-70
2021/12/24 13:16:46;;;;;;;14.75;8.43;;;;;;;;;;5072417;28;20418;-71
2021/12/24 13:24:51;;;;;;;17.75;8.93;;;;;;;;;;5071973;28;20077;-76
2021/12/24 13:27:19;;;;;;;17.05;8.25;;;;;;;;;;5071904;28;20039;-72
2021/12/24 13:29:45;;;;;;;14.95;6.43;;;;;;;;;;5071625;28;20482;-71
2021/12/24 13:32:11;;;;;;;16.35;6.95;;;;;;;;;;5071647;28;20476;-73
2021/12/24 13:34:37;;;;;;;14.07;7.05;;;;;;;;;;5054978;28;20055;-73
2021/12/24 13:37:10;;;;;;;17.65;7.28;;;;;;;;;;5051832;28;20032;-74
2021/12/24 13:39:45;;;;;;;15.30;7.93;;;;;;;;;;5051250;28;20484;-75
2021/12/24 13:42:10;;;;;;;13.55;7.65;;;;;;;;;;5051590;28;20262;-74
2021/12/24 13:44:38;;;;;;;16.08;6.35;;;;;;;;;;5051497;28;20300;-73
2021/12/24 13:47:16;;;;;;;14.32;7.05;;;;;;;;;;5051388;28;20037;-75
2021/12/24 13:55:25;;;;;;;14.95;8.00;;;;;;;;;;5064416;28;20055;-73
2021/12/24 13:57:58;;;;;;;15.80;7.45;;;;;;;;;;5057148;28;20255;-71
2021/12/24 14:00:24;;;;;;;18.60;7.75;;;;;;;;;;5050764;28;20602;-72
2021/12/24 14:02:56;;;;;;;19.40;7.38;;;;;;;;;;5050993;28;20542;-73
2021/12/24 14:05:22;;;;;;;23.58;10.07;;;;;;;;;;5050408;28;20484;-76
2021/12/24 14:08:09;;;;;;;27.55;10.63;;;;;;;;;;5051995;28;20054;-72
2021/12/24 14:10:35;;;;;;;21.45;8.95;;;;;;;;;;5056783;28;20059;-70
2021/12/24 14:13:08;;;;;;;18.35;6.43;;;;;;;;;;5064680;28;20024;-75
2021/12/24 14:15:46;;;;;;;18.17;8.27;;;;;;;;;;5069617;28;20469;-72
2021/12/24 14:18:42;;;;;;;22.55;10.13;;;;;;;;;;5053616;28;20691;-71
2021/12/24 14:24:12;;;;;;;15.35;6.88;;;;;;;;;;5050068;28;20029;-72
2021/12/24 14:26:40;;;;;;;17.48;7.10;;;;;;;;;;5048893;28;20391;-73
2021/12/24 14:29:07;;;;;;;23.08;10.30;;;;;;;;;;5048454;28;20021;-72
2021/12/24 14:31:55;;;;;;;27.30;13.10;;;;;;;;;;5049585;28;20021;-72
2021/12/24 14:34:51;;;;;;;30.58;12.18;;;;;;;;;;5053987;28;20432;-72
2021/12/24 14:37:23;;;;;;;26.45;12.05;;;;;;;;;;5062956;28;20032;-71
2021/12/24 14:39:55;;;;;;;23.05;10.95;;;;;;;;;;5068622;28;20040;-70
2021/12/24 14:42:26;;;;;;;22.50;10.70;;;;;;;;;;5068800;28;20035;-68
2021/12/24 14:45:27;;;;;;;25.08;11.18;;;;;;;;;;5067745;28;20099;-73
2021/12/24 14:48:07;;;;;;;;;;;;;;;;;;5075942;28;20028;-71
2021/12/24 14:50:59;;;;;;;13.67;6.87;;;;;;;;;;5077635;28;19912;-71
2021/12/24 14:53:38;;;;;;;20.83;8.30;;;;;;;;;;5064076;28;20032;-70
2021/12/24 14:56:12;;;;;;;16.75;8.27;;;;;;;;;;5064051;28;20044;-70
2021/12/24 14:58:43;;;;;;;18.75;10.35;;;;;;;;;;5063036;28;20061;-67
2021/12/24 15:01:11;;;;;;;22.48;9.27;;;;;;;;;;5065608;28;20036;-69
2021/12/24 15:03:44;;;;;;;16.63;8.32;;;;;;;;;;5077526;28;20036;-66
2021/12/24 15:06:31;;;;;;;18.48;8.23;;;;;;;;;;5094647;28;20031;-67
2021/12/24 15:09:02;;;;;;;24.92;10.63;;;;;;;;;;5078147;28;20062;-71
2021/12/24 15:11:31;;;;;;;23.15;9.95;;;;;;;;;;5072369;28;20312;-70
2021/12/24 15:14:00;;;;;;;17.67;9.98;;;;;;;;;;5071757;28;20428;-72
2021/12/24 15:16:28;;;;;;;20.58;10.07;;;;;;;;;;5069039;28;20480;-75
2021/12/24 15:18:56;;;;;;;17.27;8.65;;;;;;;;;;5069797;28;20027;-72
2021/12/24 15:21:24;;;;;;;17.42;7.75;;;;;;;;;;5061136;28;20020;-73
2021/12/24 15:23:51;;;;;;;13.18;7.70;;;;;;;;;;5069194;28;20062;-71
2021/12/24 15:26:18;;;;;;;12.60;7.75;;;;;;;;;;5067697;28;20031;-78
2021/12/24 15:28:45;;;;;;;20.33;8.27;;;;;;;;;;5062542;28;20039;-75
2021/12/24 15:31:12;;;;;;;18.98;7.60;;;;;;;;;;5063656;28;20033;-71
2021/12/24 15:33:38;;;;;;;17.63;9.95;;;;;;;;;;5049526;28;20480;-72
2021/12/24 15:36:05;;;;;;;17.95;10.07;;;;;;;;;;5053075;28;20044;-72
2021/12/24 15:38:30;;;;;;;16.27;9.05;;;;;;;;;;5061169;28;20024;-68
2021/12/24 15:40:56;;;;;;;18.40;9.93;;;;;;;;;;5072008;28;20040;-66
2021/12/24 15:43:23;;;;;;;19.30;10.65;;;;;;;;;;5076517;28;20039;-68
2021/12/24 15:45:50;;;;;;;16.83;9.65;;;;;;;;;;5063298;28;20024;-66
2021/12/24 15:48:16;;;;;;;18.05;10.45;;;;;;;;;;5064833;28;20088;-72
2021/12/24 15:50:44;;;;;;;17.15;10.32;;;;;;;;;;5072282;28;20471;-73
2021/12/24 15:53:10;;;;;;;17.67;10.68;;;;;;;;;;5063226;28;20318;-72
2021/12/24 15:55:37;;;;;;;18.90;11.38;;;;;;;;;;5057706;28;20234;-68
2021/12/24 15:58:05;;;;;;;17.55;10.98;;;;;;;;;;5074841;28;20492;-73
2021/12/24 16:00:33;;;;;;;19.73;11.35;;;;;;;;;;5056035;28;20068;-68
2021/12/24 16:02:58;;;;;;;21.23;11.05;;;;;;;;;;5084560;28;20241;-69
2021/12/24 16:05:24;;;;;;;20.65;10.63;;;;;;;;;;5072551;28;20020;-67
2021/12/24 16:07:49;;;;;;;21.45;11.32;;;;;;;;;;5076333;28;20024;-69
2021/12/24 16:10:15;;;;;;;18.58;10.88;;;;;;;;;;5072913;28;20025;-69
2021/12/24 16:12:41;;;;;;;17.63;10.60;;;;;;;;;;5070640;28;20487;-68
2021/12/24 16:15:08;;;;;;;19.38;10.98;;;;;;;;;;5053922;28;20028;-71
2021/12/24 16:17:35;;;;;;;22.15;13.30;;;;;;;;;;5057659;28;20051;-72
2021/12/24 16:20:02;;;;;;;18.85;11.57;;;;;;;;;;5063301;28;20376;-70
2021/12/24 16:22:28;;;;;;;22.25;12.88;;;;;;;;;;5064282;28;20100;-71
2021/12/24 16:24:53;;;;;;;34.50;18.75;;;;;;;;;;5061281;28;20369;-77
2021/12/24 16:27:19;;;;;;;36.72;21.60;;;;;;;;;;5057319;28;20036;-67
2021/12/24 16:29:56;;;;;;;45.90;25.25;;;;;;;;;;5055330;28;20364;-67
2021/12/24 16:32:28;;;;;;;42.58;22.80;;;;;;;;;;5055548;28;20028;-70
2021/12/24 16:34:55;;;;;;;29.08;16.23;;;;;;;;;;5064181;28;20151;-69